Flight Track Log - Related Links

Times and Time Zones

All times are in EDT time to prevent confusion due to time zone crossing. See the AMX536 flight status page for this flight to view local times or setup timezone preferences in your user account.

Time Position Orientation Groundspeed Altitude Reporting Facility
EDT Latitude Longitude Course Direction KTS MPH feet Rate Location/Type
Fri 10:37:00 AM 20.2492 -94.3890 262° West  Level Estimated
Fri 10:38:00 AM 20.2350 -94.4778 260° West  Level Estimated
Fri 10:39:00 AM 20.2208 -94.5667 260° West  Level Estimated
Fri 10:40:00 AM 20.2065 -94.6555 260° West  Level Estimated
Fri 10:41:00 AM 20.1921 -94.7443 260° West  Level Estimated
Fri 10:42:00 AM 20.1777 -94.8331 260° West  Level Estimated
Fri 10:43:00 AM 20.1633 -94.9218 260° West  Level Estimated
Fri 10:44:00 AM 20.1488 -95.0106 260° West  Level Estimated
Fri 10:45:00 AM 20.1343 -95.0993 260° West  Level Estimated
Fri 10:46:00 AM 20.1198 -95.1880 260° West  Level Estimated
Fri 10:47:00 AM 20.1052 -95.2767 260° West  Level Estimated
Fri 10:48:00 AM 20.0905 -95.3654 260° West  Level Estimated
Fri 10:49:00 AM 20.0758 -95.4541 260° West  Level Estimated
Fri 10:50:00 AM 20.0611 -95.5427 260° West  Level Estimated
Fri 10:51:00 AM 20.0463 -95.6314 260° West  Level Estimated
Fri 10:52:00 AM 20.0315 -95.7200 260° West  Level Estimated
Fri 10:53:00 AM 20.0166 -95.8086 260° West  Level Estimated
Fri 10:54:00 AM 20.0017 -95.8972 260° West  Level Estimated
Fri 10:55:00 AM 19.9867 -95.9858 260° West  Level Estimated
Fri 10:56:00 AM 19.9717 -96.0743 260° West  Level Estimated
Fri 10:57:00 AM 19.9567 -96.1628 260° West  Level Estimated
Fri 10:58:00 AM 19.9416 -96.2514 260° West  Level Estimated
Fri 10:59:00 AM 19.9265 -96.3399 260° West  Level Estimated
Fri 11:00:00 AM 19.9113 -96.4284 260° West  Level Estimated
Fri 11:01:00 AM 19.8960 -96.5168 260° West  Level Estimated
Fri 11:02:00 AM 19.8808 -96.6053 260° West  Level Estimated
Fri 11:03:00 AM 19.8655 -96.6937 260° West  Level Estimated
Fri 11:04:00 AM 19.8501 -96.7821 260° West  Level Estimated
Fri 11:05:00 AM 19.8347 -96.8705 260° West  Level Estimated
Fri 11:06:00 AM 19.8193 -96.9589 259° West  Level Estimated
Fri 11:07:00 AM 19.8038 -97.0473 259° West  Level Estimated
Fri 11:08:00 AM 19.7883 -97.1356 259° West  Level Estimated
Fri 11:09:00 AM 19.7727 -97.2239 259° West  Level Estimated
Fri 11:10:00 AM 19.7571 -97.3122 259° West  Level Estimated
Fri 11:11:00 AM 19.7414 -97.4006 259° West  Level Estimated
Fri 11:12:00 AM 19.7257 -97.4888 259° West  Level Estimated
Fri 11:13:00 AM 19.7100 -97.5771 259° West  Level Estimated
Fri 11:14:00 AM 19.6942 -97.6653 259° West  Level Estimated
Fri 11:15:00 AM 19.6784 -97.7536 259° West  Level Estimated
Fri 11:16:00 AM 19.6625 -97.8418 259° West  Level Estimated
Fri 11:17:00 AM 19.6466 -97.9300 259° West  Level Estimated
Fri 11:18:00 AM 19.6306 -98.0181 259° West  Level Estimated
Fri 11:19:00 AM 19.6146 -98.1063 259° West  Level Estimated
Fri 11:20:00 AM 19.5986 -98.1944 259° West  Level Estimated
Fri 11:21:00 AM 19.5825 -98.2825 259° West  Level Estimated
Fri 11:22:00 AM 19.5664 -98.3707 259° West  Level Estimated
Fri 11:23:00 AM 19.5502 -98.4587 259° West  Level Estimated
Fri 11:24:00 AM 19.5340 -98.5468 259° West  Level Estimated
Fri 11:25:00 AM 19.5177 -98.6349 259° West  Level Estimated
Fri 11:26:00 AM 19.5014 -98.7229 259° West  Level Estimated
Fri 11:27:00 AM 19.4851 -98.8109 259° West  Level Estimated
Fri 11:28:00 AM 19.4687 -98.8989 259° West  Level Estimated
Fri 11:29:00 AM 19.4523 -98.9869 259° West  Level Estimated
Fri 11:30:00 AM 19.4363 -99.0721 259° West  Level Estimated
Fri 11:31:00 AM 19.4363 -99.0721 43° Northeast  Level Estimated
Fri 11:32:00 AM 19.4363 -99.0721 43° Northeast  Level Estimated
Fri 11:33:00 AM 19.4363 -99.0721 43° Northeast  Level Estimated
Fri 11:34:00 AM 19.4363 -99.0721 43° Northeast  Level Estimated
Fri 11:35:00 AM 19.4363 -99.0721 43° Northeast  Level Estimated
Fri 11:36:00 AM 19.4363 -99.0721 43° Northeast  Level Estimated
Fri 11:37:00 AM 19.4363 -99.0721 43° Northeast  Level Estimated
Fri 11:38:00 AM 19.4363 -99.0721 43° Northeast  Level Estimated
Fri 11:39:00 AM 19.4363 -99.0721 43° Northeast  Level Estimated
Fri 11:40:00 AM 19.4363 -99.0721 43° Northeast  Level Estimated
Fri 11:41:00 AM 19.4363 -99.0721 43° Northeast  Level Estimated
Fri 11:42:00 AM 19.4363 -99.0721 43° Northeast  Level Estimated
Fri 11:43:00 AM 19.4363 -99.0721 43° Northeast  Level Estimated
Fri 11:44:00 AM 19.4363 -99.0721 43° Northeast  Level Estimated
Fri 11:45:00 AM 19.4363 -99.0721 43° Northeast  Level Estimated
Fri 11:46:00 AM 19.4363 -99.0721 43° Northeast  Level Estimated

Login

Don't have an account? Register now (free) for customized features, flight alerts, and more!